Time;durP1;ratioP1;P1;durP2;ratioP2;P2;SDS_P1;SDS_P2;PMS_P1;PMS_P2;Temp;Humidity;BMP_temperature;BMP_pressure;BME280_temperature;BME280_humidity;BME280_pressure;Samples;Min_cycle;Max_cycle;Signal;HPM_P1;HPM_P2
2023/12/30 00:01:41;;;;;;;7.10;1.23;;;;;;;5.77;100.00;100966.88;4994397;28;20981;-69
2023/12/30 00:04:07;;;;;;;10.43;1.17;;;;;;;6.05;100.00;101020.69;4993970;28;20185;-69
2023/12/30 00:06:34;;;;;;;8.70;1.60;;;;;;;5.86;100.00;100968.53;4975493;28;20554;-69
2023/12/30 00:08:59;;;;;;;11.27;2.17;;;;;;;6.03;100.00;100967.59;4974557;28;20193;-72
2023/12/30 00:11:25;;;;;;;6.23;1.20;;;;;;;6.10;100.00;100991.72;4993276;28;20455;-69
2023/12/30 00:13:50;;;;;;;10.97;1.53;;;;;;;6.10;100.00;100981.06;4994649;28;20197;-70
2023/12/30 00:16:15;;;;;;;10.43;1.30;;;;;;;5.74;100.00;100943.25;4994730;28;20818;-69
2023/12/30 00:18:41;;;;;;;9.10;1.50;;;;;;;5.77;100.00;100945.56;4989641;28;20217;-70
2023/12/30 00:21:06;;;;;;;12.13;1.43;;;;;;;6.08;100.00;100993.72;4989163;28;20193;-70
2023/12/30 00:23:32;;;;;;;6.30;1.60;;;;;;;6.16;100.00;100988.38;4994423;28;20191;-70
2023/12/30 00:25:57;;;;;;;8.43;1.60;;;;;;;6.02;100.00;100997.88;4991238;28;20279;-70
2023/12/30 00:28:23;;;;;;;12.27;1.70;;;;;;;5.84;100.00;100975.84;4983282;28;20597;-70
2023/12/30 00:30:48;;;;;;;8.23;1.67;;;;;;;5.71;100.00;100925.78;4991104;28;20193;-70
2023/12/30 00:33:14;;;;;;;11.73;2.70;;;;;;;6.07;100.00;101019.50;4988193;28;20185;-70
2023/12/30 00:35:40;;;;;;;11.30;1.80;;;;;;;6.05;100.00;101016.19;4985694;28;20217;-70
2023/12/30 00:38:06;;;;;;;12.33;1.47;;;;;;;6.08;100.00;101021.19;4986740;28;20221;-70
2023/12/30 00:40:31;;;;;;;9.93;2.07;;;;;;;5.25;100.00;100855.38;4966946;28;20208;-70
2023/12/30 00:42:56;;;;;;;11.03;1.30;;;;;;;5.94;100.00;100973.91;4992946;28;20506;-70
2023/12/30 00:45:22;;;;;;;10.30;2.10;;;;;;;6.25;100.00;101023.84;4987816;28;20178;-70
2023/12/30 00:47:47;;;;;;;9.17;1.97;;;;;;;5.63;100.00;100955.84;4997240;28;20209;-70
2023/12/30 00:50:13;;;;;;;9.60;1.53;;;;;;;5.81;100.00;100997.47;4991363;28;20199;-70
2023/12/30 00:52:39;;;;;;;14.37;2.13;;;;;;;6.05;100.00;101047.31;4992458;28;20188;-69
2023/12/30 00:55:04;;;;;;;12.33;2.30;;;;;;;6.18;100.00;101060.97;4969804;28;20484;-70
2023/12/30 00:57:30;;;;;;;9.33;1.80;;;;;;;6.18;100.00;101071.63;4991898;28;20194;-70
2023/12/30 00:59:55;;;;;;;6.30;1.87;;;;;;;6.23;100.00;101068.47;4968887;28;20212;-70
2023/12/30 01:02:20;;;;;;;8.47;1.37;;;;;;;6.25;100.00;101061.13;4994545;28;20186;-70
2023/12/30 01:04:46;;;;;;;10.23;2.00;;;;;;;5.88;100.00;101027.78;4990337;28;20177;-70
2023/12/30 01:07:11;;;;;;;16.87;2.03;;;;;;;6.01;100.00;101028.16;4987837;28;20582;-70
2023/12/30 01:09:37;;;;;;;9.27;1.53;;;;;;;6.11;100.00;101042.16;4991193;28;20193;-70
2023/12/30 01:12:03;;;;;;;11.40;1.73;;;;;;;5.92;100.00;100991.84;4984666;28;20197;-70
2023/12/30 01:14:29;;;;;;;10.00;1.70;;;;;;;6.12;100.00;101027.00;4970380;28;20680;-70
2023/12/30 01:16:54;;;;;;;12.70;2.83;;;;;;;6.27;100.00;101033.34;4976802;28;20475;-69
2023/12/30 01:19:20;;;;;;;9.50;2.00;;;;;;;6.21;100.00;101052.66;4986127;28;20966;-70
2023/12/30 01:21:45;;;;;;;11.03;2.03;;;;;;;5.65;100.00;100961.03;4972004;28;20182;-70
2023/12/30 01:24:10;;;;;;;9.97;2.80;;;;;;;6.26;100.00;101076.13;4988213;28;26585;-69
2023/12/30 01:26:39;;;;;;;10.30;2.23;;;;;;;6.43;100.00;101099.13;4988900;28;20245;-70
2023/12/30 01:29:05;;;;;;;11.00;1.57;;;;;;;6.32;100.00;101073.63;4991704;28;20186;-70
2023/12/30 01:31:30;;;;;;;13.23;1.60;;;;;;;6.18;100.00;101060.16;4987818;28;20435;-70
2023/12/30 01:33:55;;;;;;;12.20;1.70;;;;;;;5.76;100.00;101005.97;4995890;28;20260;-70
2023/12/30 01:36:21;;;;;;;11.03;1.90;;;;;;;6.26;100.00;101092.13;4984850;28;20186;-70
2023/12/30 01:38:46;;;;;;;10.47;2.17;;;;;;;6.53;100.00;101130.94;4977204;28;20204;-70
2023/12/30 01:41:12;;;;;;;14.13;2.53;;;;;;;6.20;100.00;101098.94;4988596;28;20193;-70
2023/12/30 01:43:37;;;;;;;8.10;1.70;;;;;;;6.21;100.00;101097.09;4991428;28;20221;-70
2023/12/30 01:46:09;;;;;;;10.90;1.80;;;;;;;6.24;100.00;101131.41;4990398;28;20200;-70
2023/12/30 01:48:35;;;;;;;8.03;2.17;;;;;;;6.32;100.00;101118.09;4973119;28;20288;-70
2023/12/30 01:51:02;;;;;;;13.27;1.97;;;;;;;6.37;100.00;101152.25;4986512;28;20898;-70
2023/12/30 01:53:30;;;;;;;12.47;2.20;;;;;;;6.49;100.00;101164.28;4988382;28;20471;-70
2023/12/30 01:55:57;;;;;;;10.97;1.80;;;;;;;6.45;100.00;101168.25;4987121;28;20482;-70
2023/12/30 01:58:22;;;;;;;16.07;2.20;;;;;;;6.49;100.00;101169.59;4990403;28;20582;-70
2023/12/30 02:00:49;;;;;;;11.57;3.03;;;;;;;6.32;100.00;101142.09;4992091;28;20548;-70
2023/12/30 02:03:18;;;;;;;9.70;2.20;;;;;;;6.55;100.00;101176.94;4995711;28;20208;-70
2023/12/30 02:05:46;;;;;;;13.60;2.57;;;;;;;6.52;100.00;101179.94;4990465;28;20495;-70
2023/12/30 02:08:11;;;;;;;11.93;2.30;;;;;;;6.46;100.00;101184.09;4986822;28;20478;-70
2023/12/30 02:10:37;;;;;;;10.00;2.40;;;;;;;6.43;100.00;101170.25;4972297;28;20834;-69
2023/12/30 02:13:03;;;;;;;10.90;2.57;;;;;;;6.22;100.00;101146.72;4988719;28;20196;-70
2023/12/30 02:15:28;;;;;;;15.73;3.20;;;;;;;6.48;100.00;101191.91;4986154;28;20225;-70
2023/12/30 02:17:56;;;;;;;19.57;4.80;;;;;;;6.46;100.00;101200.06;4984697;28;20456;-70
2023/12/30 02:20:22;;;;;;;20.00;7.03;;;;;;;6.25;100.00;101149.03;4991799;28;20185;-70
2023/12/30 02:22:48;;;;;;;28.67;7.40;;;;;;;6.49;100.00;101225.56;4982625;28;20448;-70
2023/12/30 02:25:15;;;;;;;22.77;7.60;;;;;;;6.46;100.00;101221.38;4994214;28;20433;-70
2023/12/30 02:27:42;;;;;;;18.73;6.67;;;;;;;6.26;100.00;101193.34;4988697;28;20993;-69
2023/12/30 02:30:08;;;;;;;17.50;7.50;;;;;;;6.39;100.00;101233.66;4992948;28;20838;-70
2023/12/30 02:32:34;;;;;;;19.67;7.10;;;;;;;6.46;100.00;101271.19;4989884;28;21049;-70
2023/12/30 02:34:59;;;;;;;27.13;7.27;;;;;;;6.47;100.00;101257.69;4973644;28;20464;-70
2023/12/30 02:37:25;;;;;;;15.90;5.90;;;;;;;6.50;100.00;101273.34;4991805;28;20209;-70
2023/12/30 02:39:50;;;;;;;14.93;6.10;;;;;;;6.20;100.00;101245.44;4986895;28;20204;-69
2023/12/30 02:42:15;;;;;;;17.60;6.53;;;;;;;6.51;100.00;101292.88;4994096;28;20272;-70
2023/12/30 02:44:41;;;;;;;15.10;5.50;;;;;;;5.63;100.00;101167.91;4987141;28;20169;-69
2023/12/30 02:47:06;;;;;;;20.17;4.70;;;;;;;6.39;100.00;101272.81;4991371;28;20205;-69
2023/12/30 02:49:33;;;;;;;18.03;4.27;;;;;;;6.38;100.00;101303.13;4988969;28;20220;-70
2023/12/30 02:51:59;;;;;;;17.20;3.17;;;;;;;6.47;100.00;101304.81;4993293;28;20239;-69
2023/12/30 02:54:25;;;;;;;14.20;3.10;;;;;;;6.27;100.00;101262.44;4990850;28;20471;-70
2023/12/30 02:56:50;;;;;;;9.33;1.73;;;;;;;6.09;100.00;101214.59;4991459;28;20583;-70
2023/12/30 02:59:15;;;;;;;10.30;2.63;;;;;;;6.42;100.00;101278.69;4982320;28;20211;-70
2023/12/30 03:01:41;;;;;;;12.10;2.77;;;;;;;6.53;100.00;101285.53;4989004;28;20178;-70
2023/12/30 03:04:06;;;;;;;14.83;2.20;;;;;;;6.59;100.00;101295.53;4992921;28;20182;-70
2023/12/30 03:06:32;;;;;;;10.97;2.20;;;;;;;6.47;100.00;101257.69;4971437;28;20217;-70
2023/12/30 03:08:57;;;;;;;13.87;2.07;;;;;;;6.55;100.00;101283.53;4973463;28;20182;-70
2023/12/30 03:11:23;;;;;;;17.60;2.97;;;;;;;6.37;100.00;101248.19;4985410;28;20181;-70
2023/12/30 03:13:49;;;;;;;13.20;2.50;;;;;;;6.49;100.00;101250.38;4973464;28;20594;-69
2023/12/30 03:16:15;;;;;;;10.83;2.67;;;;;;;6.50;100.00;101276.00;4982921;28;20476;-70
2023/12/30 03:18:41;;;;;;;15.07;2.60;;;;;;;6.77;100.00;101322.13;4971177;28;20668;-69
2023/12/30 03:21:08;;;;;;;10.77;2.30;;;;;;;6.77;100.00;101319.44;4989525;28;20192;-69
2023/12/30 03:23:35;;;;;;;10.53;2.73;;;;;;;6.64;100.00;101298.56;4987600;28;20444;-69
2023/12/30 03:26:00;;;;;;;13.40;2.60;;;;;;;6.61;100.00;101324.72;4989313;28;20443;-69
2023/12/30 03:28:26;;;;;;;11.80;1.87;;;;;;;6.30;100.00;101261.28;4982891;28;20461;-70
2023/12/30 03:30:52;;;;;;;15.10;2.80;;;;;;;6.69;100.00;101312.25;4983728;28;20193;-69
2023/12/30 03:33:17;;;;;;;13.83;2.30;;;;;;;6.50;100.00;101297.34;4970928;28;20663;-69
2023/12/30 03:35:43;;;;;;;11.80;2.57;;;;;;;6.69;100.00;101319.41;4965303;28;20656;-69
2023/12/30 03:38:08;;;;;;;11.10;2.27;;;;;;;6.02;100.00;101197.59;4990288;28;20219;-69
2023/12/30 03:40:34;;;;;;;14.67;2.33;;;;;;;6.74;100.00;101309.06;4994964;28;20189;-69
2023/12/30 03:42:59;;;;;;;9.37;2.17;;;;;;;6.52;100.00;101278.53;4984612;28;20255;-69
2023/12/30 03:45:24;;;;;;;11.83;2.70;;;;;;;5.97;100.00;101178.59;4988690;28;20663;-77
2023/12/30 03:47:52;;;;;;;10.87;2.10;;;;;;;6.59;100.00;101273.38;4980378;28;20240;-70
2023/12/30 03:50:17;;;;;;;9.03;1.90;;;;;;;6.74;100.00;101285.06;4991448;28;20651;-70
2023/12/30 03:52:43;;;;;;;10.50;1.90;;;;;;;6.67;100.00;101271.56;4996388;28;20429;-70
2023/12/30 03:55:08;;;;;;;10.97;2.23;;;;;;;6.63;100.00;101266.75;4996531;28;20221;-70
2023/12/30 03:57:34;;;;;;;14.53;2.50;;;;;;;6.27;100.00;101184.34;4986118;28;20219;-69
2023/12/30 04:00:00;;;;;;;14.40;2.70;;;;;;;6.70;100.00;101284.56;4975159;28;20670;-70
2023/12/30 04:02:25;;;;;;;10.07;2.20;;;;;;;6.50;100.00;101257.38;4990152;28;20675;-70
2023/12/30 04:04:51;;;;;;;10.77;1.70;;;;;;;6.53;100.00;101258.88;4985331;28;20440;-70
2023/12/30 04:07:16;;;;;;;13.23;2.20;;;;;;;6.74;100.00;101315.25;4992041;28;20220;-70
2023/12/30 04:09:42;;;;;;;10.47;2.23;;;;;;;6.79;100.00;101314.75;4991807;28;20275;-70
2023/12/30 04:12:07;;;;;;;15.20;2.23;;;;;;;6.87;100.00;101328.13;4992753;28;20806;-70
2023/12/30 04:14:33;;;;;;;13.43;2.40;;;;;;;6.78;100.00;101305.94;4990077;28;20255;-69
2023/12/30 04:16:58;;;;;;;15.63;2.33;;;;;;;6.16;100.00;101227.25;4989623;28;20229;-69
2023/12/30 04:19:24;;;;;;;21.37;2.40;;;;;;;6.57;100.00;101287.72;4991686;28;20690;-70
2023/12/30 04:21:50;;;;;;;11.47;2.53;;;;;;;6.81;100.00;101342.09;4990076;28;20185;-70
2023/12/30 04:24:15;;;;;;;13.70;2.17;;;;;;;6.61;100.00;101338.88;4986296;28;20498;-70
2023/12/30 04:26:43;;;;;;;11.00;2.20;;;;;;;6.69;100.00;101351.41;4987603;28;20209;-69
2023/12/30 04:29:09;;;;;;;11.40;2.20;;;;;;;6.63;100.00;101360.03;4987593;28;20189;-70
2023/12/30 04:31:35;;;;;;;13.60;2.30;;;;;;;7.00;100.00;101392.50;4973252;28;22386;-70
2023/12/30 04:34:00;;;;;;;14.90;3.03;;;;;;;6.76;100.00;101368.41;4986897;28;20450;-70
2023/12/30 04:36:25;;;;;;;14.70;2.60;;;;;;;6.84;100.00;101365.78;4983644;28;20201;-69
2023/12/30 04:38:51;;;;;;;13.30;2.60;;;;;;;6.99;100.00;101398.81;4992940;28;20612;-70
2023/12/30 04:41:16;;;;;;;18.60;2.87;;;;;;;6.41;100.00;101324.13;4989849;28;20184;-70
2023/12/30 04:43:42;;;;;;;10.57;2.13;;;;;;;6.84;100.00;101383.63;4971743;28;20209;-70
2023/12/30 04:46:07;;;;;;;16.20;2.40;;;;;;;6.95;100.00;101410.00;4983256;28;20671;-70
2023/12/30 04:48:32;;;;;;;13.43;2.20;;;;;;;6.96;100.00;101401.81;4990164;28;20263;-70
2023/12/30 04:50:58;;;;;;;18.07;3.00;;;;;;;6.95;100.00;101402.81;4988481;28;20200;-70
2023/12/30 04:53:23;;;;;;;10.63;2.30;;;;;;;6.32;100.00;101299.28;4988066;28;20839;-70
2023/12/30 04:55:49;;;;;;;15.93;2.73;;;;;;;6.84;100.00;101381.78;4977693;28;20235;-70
2023/12/30 04:58:16;;;;;;;12.00;1.83;;;;;;;6.71;100.00;101346.72;4980975;28;20208;-70
2023/12/30 05:00:41;;;;;;;15.90;3.70;;;;;;;6.56;100.00;101376.66;4969238;28;20185;-70
2023/12/30 05:03:07;;;;;;;13.87;2.37;;;;;;;6.56;100.00;101318.00;4983238;28;20448;-70
2023/12/30 05:05:32;;;;;;;11.43;2.33;;;;;;;6.21;100.00;101230.28;4993198;28;21630;-70
2023/12/30 05:07:57;;;;;;;10.43;2.83;;;;;;;6.26;100.00;101226.16;4992153;28;20205;-70
2023/12/30 05:10:23;;;;;;;12.10;2.07;;;;;;;6.07;100.00;101197.09;4991431;28;20786;-70
2023/12/30 05:12:49;;;;;;;13.97;2.13;;;;;;;6.48;100.00;101272.69;4991435;28;20196;-70
2023/12/30 05:15:15;;;;;;;12.00;2.23;;;;;;;6.73;100.00;101294.91;4986614;28;20270;-70
2023/12/30 05:17:40;;;;;;;11.40;1.90;;;;;;;6.70;100.00;101319.22;4984884;28;20869;-70
2023/12/30 05:20:08;;;;;;;11.37;1.80;;;;;;;6.59;100.00;101302.69;4987687;28;20181;-70
2023/12/30 05:22:35;;;;;;;11.17;1.90;;;;;;;6.68;100.00;101304.41;4986615;28;20212;-70
2023/12/30 05:25:00;;;;;;;12.83;2.50;;;;;;;6.20;100.00;101245.44;4988611;28;20439;-70
2023/12/30 05:27:26;;;;;;;11.30;1.80;;;;;;;6.50;100.00;101329.31;4989773;28;20472;-70
2023/12/30 05:29:51;;;;;;;12.63;2.60;;;;;;;6.68;100.00;101357.72;4988295;28;20193;-70
2023/12/30 05:32:17;;;;;;;13.57;2.50;;;;;;;6.18;100.00;101273.22;4988460;28;20209;-70
2023/12/30 05:34:42;;;;;;;18.77;2.93;;;;;;;6.38;100.00;101303.97;4979489;28;20213;-69
2023/12/30 05:37:07;;;;;;;13.77;2.67;;;;;;;5.98;100.00;101220.19;4986601;28;20288;-69
2023/12/30 05:39:33;;;;;;;12.00;2.63;;;;;;;6.56;100.00;101287.88;4987443;28;20585;-70
2023/12/30 05:41:58;;;;;;;11.87;2.40;;;;;;;6.60;100.00;101339.88;4989990;28;20668;-70
2023/12/30 05:44:24;;;;;;;9.17;2.17;;;;;;;6.71;100.00;101346.72;4991304;28;20173;-69
2023/12/30 05:46:51;;;;;;;12.20;2.43;;;;;;;5.86;100.00;101238.25;4985958;28;20293;-70
2023/12/30 05:49:16;;;;;;;18.60;3.33;;;;;;;6.65;100.00;101369.53;4987113;28;20674;-70
2023/12/30 05:51:42;;;;;;;14.43;2.80;;;;;;;6.57;100.00;101354.34;4989878;28;20441;-70
2023/12/30 05:54:11;;;;;;;12.00;2.40;;;;;;;6.60;100.00;101365.69;4982119;28;20192;-70
2023/12/30 05:56:36;;;;;;;13.87;2.57;;;;;;;6.74;100.00;101405.06;4991718;28;20205;-70
2023/12/30 05:59:02;;;;;;;16.83;2.27;;;;;;;6.71;100.00;101398.25;4987332;28;20475;-69
2023/12/30 06:01:27;;;;;;;10.00;2.70;;;;;;;6.52;100.00;101358.50;4990411;28;20188;-70
2023/12/30 06:03:53;;;;;;;11.17;2.40;;;;;;;6.08;100.00;101287.50;4993153;28;20177;-70
2023/12/30 06:06:19;;;;;;;12.37;2.20;;;;;;;6.67;100.00;101404.03;4974623;28;20186;-70
2023/12/30 06:08:45;;;;;;;10.20;2.07;;;;;;;6.72;100.00;101426.56;4989308;28;20697;-70
2023/12/30 06:11:14;;;;;;;15.37;2.30;;;;;;;6.77;100.00;101407.44;4990434;28;20444;-69
2023/12/30 06:13:41;;;;;;;13.27;3.17;;;;;;;6.64;100.00;101383.03;4990090;28;20498;-70
2023/12/30 06:16:08;;;;;;;13.40;2.30;;;;;;;6.53;100.00;101352.16;4988760;28;20482;-70
2023/12/30 06:18:34;;;;;;;15.60;2.70;;;;;;;6.77;100.00;101386.09;4986220;28;20457;-69
2023/12/30 06:20:59;;;;;;;9.60;1.80;;;;;;;6.80;100.00;101399.09;4989595;28;20474;-69
2023/12/30 06:23:28;;;;;;;11.30;2.07;;;;;;;6.76;100.00;101413.72;4988493;28;20440;-70
2023/12/30 06:25:54;;;;;;;14.67;2.40;;;;;;;6.77;100.00;101420.75;4984607;28;20180;-70
2023/12/30 06:28:20;;;;;;;20.67;2.90;;;;;;;6.30;100.00;101360.69;4990284;28;20469;-70
2023/12/30 06:30:46;;;;;;;18.10;2.73;;;;;;;6.71;100.00;101440.03;4986693;28;20535;-70
2023/12/30 06:33:12;;;;;;;13.87;2.30;;;;;;;6.72;100.00;101439.06;4989320;28;20185;-69
2023/12/30 06:35:38;;;;;;;16.50;2.93;;;;;;;6.71;100.00;101438.22;4990239;28;20464;-70
2023/12/30 06:38:03;;;;;;;13.73;2.23;;;;;;;6.28;100.00;101364.53;4989833;28;20468;-70
2023/12/30 06:40:29;;;;;;;18.80;2.40;;;;;;;6.23;100.00;101349.00;4971800;28;20692;-70
2023/12/30 06:42:54;;;;;;;14.80;2.37;;;;;;;6.59;100.00;101419.97;4993333;28;20190;-70
2023/12/30 06:45:21;;;;;;;11.47;1.67;;;;;;;6.74;100.00;101423.72;4987173;28;20192;-70
2023/12/30 06:47:46;;;;;;;12.40;2.30;;;;;;;6.70;100.00;101411.72;4984037;28;20209;-70
2023/12/30 06:50:12;;;;;;;16.20;2.20;;;;;;;6.46;100.00;101391.94;4980596;28;20453;-69
2023/12/30 06:52:38;;;;;;;11.50;2.53;;;;;;;6.76;100.00;101427.06;4988324;28;20193;-70
2023/12/30 06:55:03;;;;;;;13.53;2.30;;;;;;;6.82;100.00;101428.25;4986138;28;21117;-70
2023/12/30 06:57:29;;;;;;;13.40;2.63;;;;;;;6.68;100.00;101427.03;4988772;28;20210;-70
2023/12/30 06:59:55;;;;;;;16.57;2.93;;;;;;;6.62;100.00;101425.81;4969358;28;20189;-70
2023/12/30 07:02:21;;;;;;;15.63;3.10;;;;;;;6.77;100.00;101452.75;4951873;28;20555;-70
2023/12/30 07:04:46;;;;;;;9.67;2.00;;;;;;;6.70;100.00;101452.53;4991920;28;20503;-70
2023/12/30 07:07:12;;;;;;;13.53;2.77;;;;;;;5.62;100.00;101283.34;4989158;28;20509;-70
2023/12/30 07:09:39;;;;;;;17.47;3.10;;;;;;;6.35;100.00;101410.84;4990427;28;20205;-69
2023/12/30 07:12:04;;;;;;;14.10;2.80;;;;;;;6.52;100.00;101436.59;4988283;28;20727;-70
2023/12/30 07:14:34;;;;;;;13.43;2.53;;;;;;;6.73;100.00;101470.88;4987339;28;20556;-70
2023/12/30 07:17:00;;;;;;;10.67;2.27;;;;;;;6.10;100.00;101367.22;4992956;28;20201;-69
2023/12/30 07:19:26;;;;;;;14.10;2.37;;;;;;;6.84;100.00;101503.63;4995737;28;20439;-69
2023/12/30 07:21:52;;;;;;;14.23;2.33;;;;;;;6.72;100.00;101492.38;4994655;28;20437;-70
2023/12/30 07:24:18;;;;;;;14.90;2.40;;;;;;;6.78;100.00;101513.06;4988650;28;20436;-70
2023/12/30 07:26:44;;;;;;;13.80;2.80;;;;;;;6.81;100.00;101510.09;4986143;28;20515;-70
2023/12/30 07:29:10;;;;;;;12.30;2.40;;;;;;;6.30;100.00;101445.13;4994050;28;20200;-69
2023/12/30 07:31:35;;;;;;;13.70;2.60;;;;;;;6.90;100.00;101514.47;4988723;28;20189;-70
2023/12/30 07:34:01;;;;;;;16.80;2.83;;;;;;;6.58;100.00;101485.78;4970168;28;20436;-70
2023/12/30 07:36:27;;;;;;;13.13;2.30;;;;;;;6.91;100.00;101520.63;4988712;28;20209;-70
2023/12/30 07:38:53;;;;;;;15.30;2.80;;;;;;;6.87;100.00;101530.78;4989256;28;20193;-70
2023/12/30 07:41:18;;;;;;;18.53;2.50;;;;;;;6.78;100.00;101523.75;4993901;28;21316;-69
2023/12/30 07:43:44;;;;;;;12.77;1.90;;;;;;;6.83;100.00;101536.59;4991144;28;20437;-70
2023/12/30 07:46:09;;;;;;;14.10;2.50;;;;;;;6.56;100.00;101504.59;4994331;28;20184;-70
2023/12/30 07:48:35;;;;;;;13.83;2.20;;;;;;;6.94;100.00;101545.19;4999133;28;20204;-70
2023/12/30 07:51:01;;;;;;;9.47;2.07;;;;;;;6.02;100.00;101431.94;4999639;28;20260;-70
2023/12/30 07:53:26;;;;;;;9.77;2.00;;;;;;;6.76;100.00;101539.06;4998284;28;20177;-70
2023/12/30 07:55:51;;;;;;;10.67;2.13;;;;;;;6.43;100.00;101496.19;4993061;28;20219;-70
2023/12/30 07:58:17;;;;;;;15.73;2.83;;;;;;;6.05;100.00;101444.94;4993393;28;20262;-70
2023/12/30 08:00:42;;;;;;;16.67;2.70;;;;;;;6.90;100.00;101569.66;4987863;28;20577;-69
2023/12/30 08:03:08;;;;;;;10.33;2.80;;;;;;;6.75;100.00;101556.88;4972153;28;20247;-70
2023/12/30 08:05:34;;;;;;;15.23;2.70;;;;;;;6.45;100.00;101523.53;4988641;28;20186;-70
2023/12/30 08:07:59;;;;;;;12.60;2.70;;;;;;;6.22;100.00;101491.22;4992287;28;21070;-70
2023/12/30 08:10:25;;;;;;;14.70;2.37;;;;;;;6.67;100.00;101564.00;4992399;28;20182;-70
2023/12/30 08:12:51;;;;;;;14.13;2.50;;;;;;;6.81;100.00;101590.09;4988516;28;20220;-69
2023/12/30 08:15:16;;;;;;;10.57;2.00;;;;;;;6.68;100.00;101616.31;4993102;28;20219;-70
2023/12/30 08:17:42;;;;;;;15.73;2.50;;;;;;;6.85;100.00;101609.28;4989005;28;20212;-70
2023/12/30 08:20:08;;;;;;;12.67;2.17;;;;;;;6.85;100.00;101615.44;4971504;28;20214;-69
2023/12/30 08:22:33;;;;;;;11.37;2.40;;;;;;;6.70;100.00;101607.16;4992314;28;20227;-70
2023/12/30 08:24:59;;;;;;;12.83;2.50;;;;;;;6.68;100.00;101592.31;4988669;28;20471;-70
2023/12/30 08:27:24;;;;;;;13.43;2.70;;;;;;;6.43;100.00;101545.97;4980928;28;20687;-70
2023/12/30 08:29:50;;;;;;;14.93;2.93;;;;;;;6.75;100.00;101618.22;4984180;28;20215;-70
2023/12/30 08:32:15;;;;;;;14.73;2.33;;;;;;;6.72;100.00;101620.34;5001352;28;20281;-70
2023/12/30 08:34:41;;;;;;;10.73;2.37;;;;;;;6.71;100.00;101610.66;4999047;28;20206;-70
2023/12/30 08:37:08;;;;;;;12.43;2.63;;;;;;;6.81;100.00;101638.09;4978442;28;20208;-70
2023/12/30 08:39:37;;;;;;;17.57;3.57;;;;;;;6.54;100.00;101594.56;4991451;28;20632;-70
2023/12/30 08:42:05;;;;;;;20.50;3.37;;;;;;;6.77;100.00;101634.06;5000496;28;20434;-70
2023/12/30 08:44:30;;;;;;;11.70;2.43;;;;;;;6.87;100.00;101636.63;4977843;28;20986;-70
2023/12/30 08:46:56;;;;;;;12.97;2.40;;;;;;;6.45;100.00;101570.63;4975547;28;20456;-70
2023/12/30 08:49:21;;;;;;;12.80;2.20;;;;;;;6.96;100.00;101647.19;4992319;28;20287;-70
2023/12/30 08:51:47;;;;;;;13.77;2.80;;;;;;;6.72;100.00;101628.34;4999554;28;20196;-70
2023/12/30 08:54:12;;;;;;;12.13;2.60;;;;;;;6.30;100.00;101579.16;4999109;28;20664;-70
2023/12/30 08:56:38;;;;;;;10.60;2.40;;;;;;;6.73;100.00;101627.34;4992169;28;20209;-70
2023/12/30 08:59:03;;;;;;;12.00;3.23;;;;;;;6.17;100.00;101545.94;4997039;28;20209;-70
2023/12/30 09:01:30;;;;;;;10.03;2.10;;;;;;;6.63;100.00;101578.63;5000672;28;20232;-70
2023/12/30 09:03:55;;;;;;;13.23;3.17;;;;;;;6.61;100.00;101577.94;5001279;28;20434;-70
2023/12/30 09:06:21;;;;;;;14.93;2.90;;;;;;;6.64;100.00;101609.63;4995559;28;20437;-70
2023/12/30 09:08:46;;;;;;;15.13;2.90;;;;;;;6.34;100.00;101553.91;4994599;28;20225;-70
2023/12/30 09:11:22;;;;;;;9.77;2.80;;;;;;;6.95;100.00;101669.53;4997161;28;20565;-69
2023/12/30 09:13:49;;;;;;;17.00;1.83;;;;;;;6.05;100.00;101548.81;4995269;28;20188;-70
2023/12/30 09:16:14;;;;;;;18.40;2.50;;;;;;;6.77;100.00;101668.72;4993943;28;20500;-69
2023/12/30 09:18:40;;;;;;;20.33;4.73;;;;;;;6.83;100.00;101689.44;4993505;28;20468;-70
2023/12/30 09:21:05;;;;;;;14.77;2.50;;;;;;;6.63;100.00;101656.78;4991310;28;20719;-70
2023/12/30 09:23:30;;;;;;;14.60;3.00;;;;;;;6.63;100.00;101663.94;4992000;28;20186;-70
2023/12/30 09:25:56;;;;;;;13.53;2.77;;;;;;;6.91;100.00;101720.66;4992437;28;20186;-70
2023/12/30 09:28:21;;;;;;;12.53;2.90;;;;;;;6.77;100.00;101658.91;4976369;28;20240;-72
2023/12/30 09:30:47;;;;;;;17.63;2.60;;;;;;;7.02;100.00;101720.44;4992832;28;20298;-70
2023/12/30 09:33:12;;;;;;;12.77;2.30;;;;;;;7.06;100.00;101721.81;4992043;28;20659;-70
2023/12/30 09:35:38;;;;;;;14.07;3.00;;;;;;;7.04;100.00;101729.13;4985459;28;20217;-70
2023/12/30 09:38:03;;;;;;;15.40;2.50;;;;;;;6.57;100.00;101650.22;4998266;28;20280;-70
2023/12/30 09:40:29;;;;;;;10.47;1.90;;;;;;;7.02;100.00;101739.09;4996384;28;20616;-70
2023/12/30 09:43:03;;;;;;;13.33;3.03;;;;;;;6.97;100.00;101717.38;4996673;28;20236;-69
2023/12/30 09:45:29;;;;;;;15.17;2.67;;;;;;;6.73;100.00;101662.00;4993171;28;20550;-70
2023/12/30 09:47:58;;;;;;;13.83;2.30;;;;;;;6.97;100.00;101734.25;4989452;28;20590;-70
2023/12/30 09:50:23;;;;;;;16.70;2.63;;;;;;;7.13;100.00;101752.22;4989346;28;20471;-70
2023/12/30 09:52:49;;;;;;;13.17;2.03;;;;;;;7.11;100.00;101746.19;4991768;28;20922;-70
2023/12/30 09:55:14;;;;;;;13.73;2.90;;;;;;;6.81;100.00;101704.75;4978281;28;20687;-70
2023/12/30 09:57:40;;;;;;;15.23;2.60;;;;;;;7.20;100.00;101755.09;4997984;28;20217;-69
2023/12/30 10:00:07;;;;;;;12.97;2.87;;;;;;;7.26;100.00;101754.47;4997077;28;20187;-70
2023/12/30 10:02:35;;;;;;;10.80;2.30;;;;;;;7.27;100.00;101740.16;4996259;28;20185;-69
2023/12/30 10:05:01;;;;;;;10.67;2.13;;;;;;;7.35;100.00;101755.41;4990942;28;20509;-69
2023/12/30 10:07:31;;;;;;;9.67;2.20;;;;;;;7.28;100.00;101765.84;4996652;28;20503;-70
2023/12/30 10:09:57;;;;;;;7.50;2.23;;;;;;;7.31;100.00;101789.53;4996566;28;20244;-69
2023/12/30 10:12:23;;;;;;;13.63;2.37;;;;;;;7.00;100.00;101741.94;4996563;28;20509;-70
2023/12/30 10:14:48;;;;;;;10.10;2.33;;;;;;;6.98;100.00;101721.75;4997556;28;20205;-70
2023/12/30 10:17:14;;;;;;;10.33;2.17;;;;;;;7.41;100.00;101784.97;4993712;28;20459;-69
2023/12/30 10:19:40;;;;;;;11.33;1.90;;;;;;;7.22;100.00;101777.97;4996996;28;20636;-70
2023/12/30 10:22:05;;;;;;;12.80;2.40;;;;;;;7.42;100.00;101793.81;4994480;28;20659;-70
2023/12/30 10:24:31;;;;;;;10.13;1.90;;;;;;;7.40;100.00;101795.78;4990741;28;20444;-70
2023/12/30 10:27:03;;;;;;;12.83;2.87;;;;;;;7.25;100.00;101780.31;4992243;28;20197;-70
2023/12/30 10:29:29;;;;;;;12.73;3.87;;;;;;;7.38;100.00;101795.97;4988905;28;20720;-70
2023/12/30 10:32:00;;;;;;;21.50;3.63;;;;;;;6.91;100.00;101729.50;4994175;28;20524;-69
2023/12/30 10:34:26;;;;;;;9.53;2.20;;;;;;;7.26;100.00;101821.19;4989217;28;20510;-70
2023/12/30 10:36:52;;;;;;;16.87;3.03;;;;;;;7.20;100.00;101805.78;4993870;28;21319;-70
2023/12/30 10:39:21;;;;;;;12.13;2.53;;;;;;;6.41;100.00;101674.03;4995911;28;20178;-70
2023/12/30 10:41:46;;;;;;;20.07;1.80;;;;;;;6.96;100.00;101777.06;4993200;28;20475;-70
2023/12/30 10:44:12;;;;;;;15.57;2.00;;;;;;;7.23;100.00;101795.66;4996265;28;20428;-70
2023/12/30 10:46:38;;;;;;;12.77;2.90;;;;;;;7.49;100.00;101829.56;4992496;28;20204;-70
2023/12/30 10:49:04;;;;;;;11.20;2.27;;;;;;;7.46;100.00;101840.53;4998149;28;20186;-70
2023/12/30 10:51:33;;;;;;;12.77;1.80;;;;;;;7.43;100.00;101854.19;4997325;28;20436;-70
2023/12/30 10:54:04;;;;;;;14.30;2.20;;;;;;;7.33;100.00;101842.78;4998082;28;20436;-70
2023/12/30 10:56:32;;;;;;;14.93;2.50;;;;;;;7.24;100.00;101818.69;4991257;28;21005;-69
2023/12/30 10:59:04;;;;;;;14.07;2.50;;;;;;;7.56;100.00;101837.81;4997418;28;20425;-70
2023/12/30 11:01:30;;;;;;;10.00;2.27;;;;;;;7.18;100.00;101775.78;4994663;28;20429;-70
2023/12/30 11:03:57;;;;;;;12.80;2.30;;;;;;;7.46;100.00;101801.38;4996091;28;20452;-70
2023/12/30 11:06:35;;;;;;;23.87;2.57;;;;;;;7.55;100.00;101862.81;4993680;28;20186;-70
2023/12/30 11:09:09;;;;;;;6.70;1.83;;;;;;;7.27;100.00;101808.69;4995622;28;20560;-69
2023/12/30 11:11:34;;;;;;;15.70;3.10;;;;;;;7.45;100.00;101836.22;4987414;28;20451;-70
2023/12/30 11:14:10;;;;;;;10.83;2.10;;;;;;;7.58;100.00;101866.03;4996208;28;20440;-70